sensor_id;sensor_type;location;lat;lon;timestamp;pressure;altitude;pressure_sealevel;temperature;humidity
11525;BME280;5819;49.648;8.330;2023-02-02T00:01:29;100951.59;;;6.56;100.00
11525;BME280;5819;49.648;8.330;2023-02-02T00:03:58;100957.69;;;6.52;100.00
11525;BME280;5819;49.648;8.330;2023-02-02T00:06:27;100953.22;;;6.62;100.00
11525;BME280;5819;49.648;8.330;2023-02-02T00:08:56;100956.78;;;6.55;100.00
11525;BME280;5819;49.648;8.330;2023-02-02T00:11:25;100960.22;;;6.57;100.00
11525;BME280;5819;49.648;8.330;2023-02-02T00:13:54;100961.03;;;6.59;100.00
11525;BME280;5819;49.648;8.330;2023-02-02T00:16:35;100964.38;;;6.66;100.00
11525;BME280;5819;49.648;8.330;2023-02-02T00:19:05;100962.59;;;6.69;100.00
11525;BME280;5819;49.648;8.330;2023-02-02T00:21:33;100958.34;;;6.65;100.00
11525;BME280;5819;49.648;8.330;2023-02-02T00:24:01;100967.59;;;6.78;100.00
11525;BME280;5819;49.648;8.330;2023-02-02T00:26:31;100965.91;;;6.76;100.00
11525;BME280;5819;49.648;8.330;2023-02-02T00:29:03;100960.66;;;6.82;100.00
11525;BME280;5819;49.648;8.330;2023-02-02T00:31:39;100962.56;;;6.71;100.00
11525;BME280;5819;49.648;8.330;2023-02-02T00:34:12;100968.72;;;6.62;100.00
11525;BME280;5819;49.648;8.330;2023-02-02T00:36:47;100960.03;;;6.66;100.00
11525;BME280;5819;49.648;8.330;2023-02-02T00:39:20;100960.97;;;6.62;100.00
11525;BME280;5819;49.648;8.330;2023-02-02T00:41:55;100963.59;;;6.61;100.00
11525;BME280;5819;49.648;8.330;2023-02-02T00:44:25;100961.59;;;6.78;100.00
11525;BME280;5819;49.648;8.330;2023-02-02T00:47:12;100957.38;;;6.72;100.00
11525;BME280;5819;49.648;8.330;2023-02-02T00:49:44;100959.09;;;6.72;100.00
11525;BME280;5819;49.648;8.330;2023-02-02T00:52:16;100959.88;;;6.75;100.00
11525;BME280;5819;49.648;8.330;2023-02-02T00:54:44;100957.25;;;6.78;100.00
11525;BME280;5819;49.648;8.330;2023-02-02T00:57:12;100963.34;;;6.76;100.00
11525;BME280;5819;49.648;8.330;2023-02-02T00:59:41;100958.94;;;6.81;100.00
11525;BME280;5819;49.648;8.330;2023-02-02T01:02:10;100954.44;;;6.92;100.00
11525;BME280;5819;49.648;8.330;2023-02-02T01:04:40;100960.59;;;6.85;100.00
11525;BME280;5819;49.648;8.330;2023-02-02T01:07:07;100959.50;;;6.98;100.00
11525;BME280;5819;49.648;8.330;2023-02-02T01:09:35;100960.34;;;6.98;100.00
11525;BME280;5819;49.648;8.330;2023-02-02T01:12:03;100959.59;;;6.92;100.00
11525;BME280;5819;49.648;8.330;2023-02-02T01:14:31;100969.94;;;6.93;100.00
11525;BME280;5819;49.648;8.330;2023-02-02T01:16:59;100972.59;;;6.89;100.00
11525;BME280;5819;49.648;8.330;2023-02-02T01:19:28;100966.50;;;6.93;100.00
11525;BME280;5819;49.648;8.330;2023-02-02T01:21:57;100968.00;;;7.03;100.00
11525;BME280;5819;49.648;8.330;2023-02-02T01:24:28;100963.78;;;6.99;100.00
11525;BME280;5819;49.648;8.330;2023-02-02T01:26:55;100968.88;;;7.03;100.00
11525;BME280;5819;49.648;8.330;2023-02-02T01:29:23;100969.78;;;7.01;100.00
11525;BME280;5819;49.648;8.330;2023-02-02T01:31:51;100969.63;;;7.10;100.00
11525;BME280;5819;49.648;8.330;2023-02-02T01:34:19;100968.09;;;7.00;100.00
11525;BME280;5819;49.648;8.330;2023-02-02T01:36:47;100971.47;;;7.03;100.00
11525;BME280;5819;49.648;8.330;2023-02-02T01:39:16;100976.47;;;7.13;100.00
11525;BME280;5819;49.648;8.330;2023-02-02T01:41:44;100972.34;;;7.02;100.00
11525;BME280;5819;49.648;8.330;2023-02-02T01:47:18;100973.03;;;7.11;100.00
11525;BME280;5819;49.648;8.330;2023-02-02T01:49:47;100974.69;;;7.15;100.00
11525;BME280;5819;49.648;8.330;2023-02-02T01:52:17;100974.09;;;7.02;100.00
11525;BME280;5819;49.648;8.330;2023-02-02T01:54:49;100972.81;;;7.23;100.00
11525;BME280;5819;49.648;8.330;2023-02-02T01:57:21;100968.50;;;7.23;100.00
11525;BME280;5819;49.648;8.330;2023-02-02T01:59:52;100979.16;;;7.08;100.00
11525;BME280;5819;49.648;8.330;2023-02-02T02:02:22;100973.16;;;7.06;100.00
11525;BME280;5819;49.648;8.330;2023-02-02T02:04:51;100969.66;;;7.09;100.00
11525;BME280;5819;49.648;8.330;2023-02-02T02:07:20;100979.06;;;7.13;100.00
11525;BME280;5819;49.648;8.330;2023-02-02T02:09:50;100983.41;;;7.11;100.00
11525;BME280;5819;49.648;8.330;2023-02-02T02:12:18;100981.34;;;7.29;100.00
11525;BME280;5819;49.648;8.330;2023-02-02T02:14:49;100991.94;;;7.16;100.00
11525;BME280;5819;49.648;8.330;2023-02-02T02:17:49;100983.25;;;7.18;100.00
11525;BME280;5819;49.648;8.330;2023-02-02T02:20:51;100983.44;;;7.09;100.00
11525;BME280;5819;49.648;8.330;2023-02-02T02:24:10;100980.78;;;7.12;100.00
11525;BME280;5819;49.648;8.330;2023-02-02T02:27:30;100979.97;;;7.10;100.00
11525;BME280;5819;49.648;8.330;2023-02-02T02:30:39;100986.91;;;7.06;100.00
11525;BME280;5819;49.648;8.330;2023-02-02T02:33:12;100985.97;;;7.11;100.00
11525;BME280;5819;49.648;8.330;2023-02-02T02:35:51;100980.88;;;7.07;100.00
11525;BME280;5819;49.648;8.330;2023-02-02T02:38:25;100984.31;;;7.08;100.00
11525;BME280;5819;49.648;8.330;2023-02-02T02:40:59;100981.53;;;7.19;100.00
11525;BME280;5819;49.648;8.330;2023-02-02T02:43:32;100989.44;;;7.11;100.00
11525;BME280;5819;49.648;8.330;2023-02-02T02:46:01;100979.22;;;7.03;100.00
11525;BME280;5819;49.648;8.330;2023-02-02T02:48:33;100988.75;;;7.01;100.00
11525;BME280;5819;49.648;8.330;2023-02-02T02:51:06;100995.75;;;6.95;100.00
11525;BME280;5819;49.648;8.330;2023-02-02T02:53:35;100994.13;;;6.89;100.00
11525;BME280;5819;49.648;8.330;2023-02-02T02:56:10;100993.00;;;7.05;100.00
11525;BME280;5819;49.648;8.330;2023-02-02T02:58:49;100991.34;;;7.00;100.00
11525;BME280;5819;49.648;8.330;2023-02-02T03:01:28;100982.78;;;6.98;100.00
11525;BME280;5819;49.648;8.330;2023-02-02T03:04:08;100979.41;;;6.93;100.00
11525;BME280;5819;49.648;8.330;2023-02-02T03:06:41;100983.63;;;6.98;100.00
11525;BME280;5819;49.648;8.330;2023-02-02T03:09:12;100987.25;;;6.90;100.00
11525;BME280;5819;49.648;8.330;2023-02-02T03:11:42;100981.00;;;7.00;100.00
11525;BME280;5819;49.648;8.330;2023-02-02T03:14:10;100983.59;;;7.00;100.00
11525;BME280;5819;49.648;8.330;2023-02-02T03:16:38;100992.31;;;6.94;100.00
11525;BME280;5819;49.648;8.330;2023-02-02T03:19:07;100992.41;;;6.90;100.00
11525;BME280;5819;49.648;8.330;2023-02-02T03:21:35;100996.66;;;6.92;100.00
11525;BME280;5819;49.648;8.330;2023-02-02T03:24:04;100992.41;;;6.90;100.00
11525;BME280;5819;49.648;8.330;2023-02-02T03:26:32;100990.75;;;6.86;100.00
11525;BME280;5819;49.648;8.330;2023-02-02T03:29:00;100997.47;;;6.96;100.00
11525;BME280;5819;49.648;8.330;2023-02-02T03:31:29;100996.59;;;6.97;100.00
11525;BME280;5819;49.648;8.330;2023-02-02T03:33:57;100992.22;;;6.99;100.00
11525;BME280;5819;49.648;8.330;2023-02-02T03:36:26;100987.03;;;7.02;100.00
11525;BME280;5819;49.648;8.330;2023-02-02T03:38:54;100988.06;;;6.90;100.00
11525;BME280;5819;49.648;8.330;2023-02-02T03:41:21;100990.69;;;6.89;100.00
11525;BME280;5819;49.648;8.330;2023-02-02T03:43:49;100991.63;;;6.85;100.00
11525;BME280;5819;49.648;8.330;2023-02-02T03:46:17;100999.53;;;6.76;100.00
11525;BME280;5819;49.648;8.330;2023-02-02T03:48:45;100993.50;;;6.77;100.00
11525;BME280;5819;49.648;8.330;2023-02-02T03:51:14;101000.25;;;6.84;100.00
11525;BME280;5819;49.648;8.330;2023-02-02T03:53:43;100997.81;;;6.76;100.00
11525;BME280;5819;49.648;8.330;2023-02-02T03:56:12;101002.22;;;6.70;100.00
11525;BME280;5819;49.648;8.330;2023-02-02T03:58:41;100998.66;;;6.75;100.00
11525;BME280;5819;49.648;8.330;2023-02-02T04:01:10;101006.47;;;6.72;100.00
11525;BME280;5819;49.648;8.330;2023-02-02T04:03:39;101009.81;;;6.79;100.00
11525;BME280;5819;49.648;8.330;2023-02-02T04:06:07;101009.88;;;6.76;100.00
11525;BME280;5819;49.648;8.330;2023-02-02T04:08:35;101008.94;;;6.81;100.00
11525;BME280;5819;49.648;8.330;2023-02-02T04:11:08;101009.78;;;6.80;100.00
11525;BME280;5819;49.648;8.330;2023-02-02T04:13:37;101011.53;;;6.80;100.00
11525;BME280;5819;49.648;8.330;2023-02-02T04:16:05;101014.09;;;6.81;100.00
11525;BME280;5819;49.648;8.330;2023-02-02T04:18:33;101017.41;;;6.89;100.00
11525;BME280;5819;49.648;8.330;2023-02-02T04:21:04;101020.09;;;6.83;100.00
11525;BME280;5819;49.648;8.330;2023-02-02T04:23:33;101014.91;;;6.85;100.00
11525;BME280;5819;49.648;8.330;2023-02-02T04:26:00;101010.41;;;6.94;100.00
11525;BME280;5819;49.648;8.330;2023-02-02T04:28:30;101013.13;;;6.88;100.00
11525;BME280;5819;49.648;8.330;2023-02-02T04:30:58;101015.81;;;6.81;100.00
11525;BME280;5819;49.648;8.330;2023-02-02T04:33:27;101015.84;;;6.79;100.00
11525;BME280;5819;49.648;8.330;2023-02-02T04:35:55;101018.34;;;6.84;100.00
11525;BME280;5819;49.648;8.330;2023-02-02T04:38:23;101011.41;;;6.87;100.00
11525;BME280;5819;49.648;8.330;2023-02-02T04:40:51;101016.56;;;6.87;100.00
11525;BME280;5819;49.648;8.330;2023-02-02T04:43:19;101014.03;;;6.84;100.00
11525;BME280;5819;49.648;8.330;2023-02-02T04:45:53;101017.41;;;6.89;100.00
11525;BME280;5819;49.648;8.330;2023-02-02T04:48:21;101016.44;;;6.95;100.00
11525;BME280;5819;49.648;8.330;2023-02-02T04:50:49;101017.28;;;6.97;100.00
11525;BME280;5819;49.648;8.330;2023-02-02T04:53:17;101020.88;;;6.88;100.00
11525;BME280;5819;49.648;8.330;2023-02-02T04:55:45;101022.53;;;6.91;100.00
11525;BME280;5819;49.648;8.330;2023-02-02T04:58:13;101027.72;;;6.91;100.00
11525;BME280;5819;49.648;8.330;2023-02-02T05:00:40;101029.53;;;6.86;100.00
11525;BME280;5819;49.648;8.330;2023-02-02T05:03:10;101035.44;;;6.94;100.00
11525;BME280;5819;49.648;8.330;2023-02-02T05:05:38;101043.22;;;6.92;100.00
11525;BME280;5819;49.648;8.330;2023-02-02T05:08:06;101041.50;;;6.93;100.00
11525;BME280;5819;49.648;8.330;2023-02-02T05:10:38;101041.53;;;6.90;100.00
11525;BME280;5819;49.648;8.330;2023-02-02T05:13:06;101035.41;;;6.95;100.00
11525;BME280;5819;49.648;8.330;2023-02-02T05:15:35;101040.69;;;6.89;100.00
11525;BME280;5819;49.648;8.330;2023-02-02T05:18:02;101042.41;;;6.89;100.00
11525;BME280;5819;49.648;8.330;2023-02-02T05:20:32;101049.13;;;7.00;100.00
11525;BME280;5819;49.648;8.330;2023-02-02T05:22:59;101049.19;;;6.94;100.00
11525;BME280;5819;49.648;8.330;2023-02-02T05:25:27;101053.50;;;6.95;100.00
11525;BME280;5819;49.648;8.330;2023-02-02T05:27:55;101051.88;;;6.90;100.00
11525;BME280;5819;49.648;8.330;2023-02-02T05:30:24;101059.53;;;6.94;100.00
11525;BME280;5819;49.648;8.330;2023-02-02T05:32:52;101057.00;;;6.93;100.00
11525;BME280;5819;49.648;8.330;2023-02-02T05:35:20;101062.22;;;6.90;100.00
11525;BME280;5819;49.648;8.330;2023-02-02T05:37:49;101062.97;;;6.98;100.00
11525;BME280;5819;49.648;8.330;2023-02-02T05:40:17;101066.50;;;6.92;100.00
11525;BME280;5819;49.648;8.330;2023-02-02T05:42:46;101068.09;;;6.99;100.00
11525;BME280;5819;49.648;8.330;2023-02-02T05:45:14;101065.56;;;6.98;100.00
11525;BME280;5819;49.648;8.330;2023-02-02T05:47:43;101082.00;;;6.94;100.00
11525;BME280;5819;49.648;8.330;2023-02-02T05:50:12;101074.19;;;6.97;100.00
11525;BME280;5819;49.648;8.330;2023-02-02T05:52:42;101080.28;;;6.93;100.00
11525;BME280;5819;49.648;8.330;2023-02-02T05:55:14;101087.16;;;6.94;100.00
11525;BME280;5819;49.648;8.330;2023-02-02T05:57:43;101088.97;;;6.89;100.00
11525;BME280;5819;49.648;8.330;2023-02-02T06:00:12;101093.22;;;6.93;100.00
11525;BME280;5819;49.648;8.330;2023-02-02T06:02:41;101089.03;;;6.86;100.00
11525;BME280;5819;49.648;8.330;2023-02-02T06:05:08;101082.94;;;6.87;100.00
11525;BME280;5819;49.648;8.330;2023-02-02T06:07:36;101083.06;;;6.79;100.00
11525;BME280;5819;49.648;8.330;2023-02-02T06:10:05;101084.72;;;6.83;100.00
11525;BME280;5819;49.648;8.330;2023-02-02T06:12:34;101085.56;;;6.85;100.00
11525;BME280;5819;49.648;8.330;2023-02-02T06:15:02;101089.09;;;6.81;100.00
11525;BME280;5819;49.648;8.330;2023-02-02T06:17:33;101095.13;;;6.82;100.00
11525;BME280;5819;49.648;8.330;2023-02-02T06:20:00;101096.84;;;6.80;100.00
11525;BME280;5819;49.648;8.330;2023-02-02T06:22:28;101102.81;;;6.85;100.00
11525;BME280;5819;49.648;8.330;2023-02-02T06:24:57;101101.97;;;6.83;100.00
11525;BME280;5819;49.648;8.330;2023-02-02T06:27:25;101107.94;;;6.88;100.00
11525;BME280;5819;49.648;8.330;2023-02-02T06:29:54;101111.44;;;6.85;100.00
11525;BME280;5819;49.648;8.330;2023-02-02T06:32:22;101108.81;;;6.87;100.00
11525;BME280;5819;49.648;8.330;2023-02-02T06:34:50;101108.84;;;6.85;100.00
11525;BME280;5819;49.648;8.330;2023-02-02T06:37:19;101108.72;;;6.93;100.00
11525;BME280;5819;49.648;8.330;2023-02-02T06:39:46;101114.88;;;6.84;100.00
11525;BME280;5819;49.648;8.330;2023-02-02T06:42:14;101115.81;;;6.82;100.00
11525;BME280;5819;49.648;8.330;2023-02-02T06:44:47;101110.56;;;6.85;100.00
11525;BME280;5819;49.648;8.330;2023-02-02T06:47:18;101112.16;;;6.93;100.00
11525;BME280;5819;49.648;8.330;2023-02-02T06:49:46;101107.91;;;6.89;100.00
11525;BME280;5819;49.648;8.330;2023-02-02T06:52:14;101107.00;;;6.92;100.00
11525;BME280;5819;49.648;8.330;2023-02-02T06:54:42;101106.03;;;7.00;100.00
11525;BME280;5819;49.648;8.330;2023-02-02T06:57:11;101101.91;;;6.87;100.00
11525;BME280;5819;49.648;8.330;2023-02-02T06:59:38;101101.03;;;6.87;100.00
11525;BME280;5819;49.648;8.330;2023-02-02T07:02:09;101101.03;;;6.87;100.00
11525;BME280;5819;49.648;8.330;2023-02-02T07:04:39;101094.25;;;6.80;100.00
11525;BME280;5819;49.648;8.330;2023-02-02T07:07:07;101095.84;;;6.90;100.00
11525;BME280;5819;49.648;8.330;2023-02-02T07:09:46;101107.84;;;6.94;100.00
11525;BME280;5819;49.648;8.330;2023-02-02T07:12:25;101100.09;;;6.94;100.00
11525;BME280;5819;49.648;8.330;2023-02-02T07:14:55;101102.63;;;6.97;100.00
11525;BME280;5819;49.648;8.330;2023-02-02T07:17:23;101106.94;;;6.95;100.00
11525;BME280;5819;49.648;8.330;2023-02-02T07:19:52;101114.75;;;6.93;100.00
11525;BME280;5819;49.648;8.330;2023-02-02T07:22:20;101123.31;;;6.97;100.00
11525;BME280;5819;49.648;8.330;2023-02-02T07:24:51;101140.63;;;6.90;100.00
11525;BME280;5819;49.648;8.330;2023-02-02T07:27:28;101122.59;;;6.87;100.00
11525;BME280;5819;49.648;8.330;2023-02-02T07:29:56;101128.56;;;6.92;100.00
11525;BME280;5819;49.648;8.330;2023-02-02T07:32:24;101125.97;;;6.94;100.00
11525;BME280;5819;49.648;8.330;2023-02-02T07:34:53;101136.19;;;7.01;100.00
11525;BME280;5819;49.648;8.330;2023-02-02T07:37:21;101129.38;;;6.96;100.00
11525;BME280;5819;49.648;8.330;2023-02-02T07:39:49;101138.84;;;6.97;100.00
11525;BME280;5819;49.648;8.330;2023-02-02T07:42:17;101138.78;;;7.00;100.00
11525;BME280;5819;49.648;8.330;2023-02-02T07:44:47;101121.47;;;7.03;100.00
11525;BME280;5819;49.648;8.330;2023-02-02T07:47:15;101116.31;;;7.03;100.00
11525;BME280;5819;49.648;8.330;2023-02-02T07:49:44;101123.13;;;7.07;100.00
11525;BME280;5819;49.648;8.330;2023-02-02T07:52:13;101119.53;;;7.18;100.00
11525;BME280;5819;49.648;8.330;2023-02-02T07:54:42;101118.69;;;7.16;100.00
11525;BME280;5819;49.648;8.330;2023-02-02T07:57:10;101121.28;;;7.16;100.00
11525;BME280;5819;49.648;8.330;2023-02-02T07:59:39;101140.88;;;7.30;100.00
11525;BME280;5819;49.648;8.330;2023-02-02T08:02:07;101138.41;;;7.23;100.00
11525;BME280;5819;49.648;8.330;2023-02-02T08:04:36;101142.78;;;7.21;100.00
11525;BME280;5819;49.648;8.330;2023-02-02T08:07:04;101152.97;;;7.30;100.00
11525;BME280;5819;49.648;8.330;2023-02-02T08:09:33;101164.22;;;7.27;100.00
11525;BME280;5819;49.648;8.330;2023-02-02T08:12:01;101160.84;;;7.22;100.00
11525;BME280;5819;49.648;8.330;2023-02-02T08:14:29;101149.66;;;7.22;100.00
11525;BME280;5819;49.648;8.330;2023-02-02T08:16:58;101148.00;;;7.18;100.00
11525;BME280;5819;49.648;8.330;2023-02-02T08:19:26;101139.16;;;7.31;100.00
11525;BME280;5819;49.648;8.330;2023-02-02T08:21:54;101136.59;;;7.29;100.00
11525;BME280;5819;49.648;8.330;2023-02-02T08:24:22;101143.50;;;7.29;100.00
11525;BME280;5819;49.648;8.330;2023-02-02T08:26:52;101141.00;;;7.23;100.00
11525;BME280;5819;49.648;8.330;2023-02-02T08:29:19;101141.00;;;7.23;100.00
11525;BME280;5819;49.648;8.330;2023-02-02T08:31:48;101146.09;;;7.27;100.00
11525;BME280;5819;49.648;8.330;2023-02-02T08:34:16;101144.31;;;7.32;100.00
11525;BME280;5819;49.648;8.330;2023-02-02T08:36:43;101141.47;;;7.47;100.00
11525;BME280;5819;49.648;8.330;2023-02-02T08:39:11;101138.19;;;7.36;100.00
11525;BME280;5819;49.648;8.330;2023-02-02T08:41:40;101147.50;;;7.46;100.00
11525;BME280;5819;49.648;8.330;2023-02-02T08:44:13;101161.09;;;7.59;100.00
11525;BME280;5819;49.648;8.330;2023-02-02T08:46:41;101164.59;;;7.58;100.00
11525;BME280;5819;49.648;8.330;2023-02-02T08:49:10;101172.22;;;7.66;100.00
11525;BME280;5819;49.648;8.330;2023-02-02T08:51:38;101175.75;;;7.60;100.00
11525;BME280;5819;49.648;8.330;2023-02-02T08:54:06;101174.97;;;7.57;100.00
11525;BME280;5819;49.648;8.330;2023-02-02T08:56:33;101185.03;;;7.72;100.00
11525;BME280;5819;49.648;8.330;2023-02-02T08:59:01;101177.44;;;7.63;100.00
11525;BME280;5819;49.648;8.330;2023-02-02T09:01:32;101182.47;;;7.72;100.00
11525;BME280;5819;49.648;8.330;2023-02-02T09:04:02;101184.97;;;7.76;100.00
11525;BME280;5819;49.648;8.330;2023-02-02T09:06:32;101183.19;;;7.78;100.00
11525;BME280;5819;49.648;8.330;2023-02-02T09:09:01;101177.28;;;7.72;100.00
11525;BME280;5819;49.648;8.330;2023-02-02T09:11:29;101175.22;;;7.90;100.00
11525;BME280;5819;49.648;8.330;2023-02-02T09:13:58;101170.94;;;7.89;100.00
11525;BME280;5819;49.648;8.330;2023-02-02T09:16:27;101171.09;;;7.79;100.00
11525;BME280;5819;49.648;8.330;2023-02-02T09:18:57;101178.78;;;7.85;100.00
11525;BME280;5819;49.648;8.330;2023-02-02T09:21:27;101177.78;;;7.92;100.00
11525;BME280;5819;49.648;8.330;2023-02-02T09:23:55;101182.16;;;7.90;100.00
11525;BME280;5819;49.648;8.330;2023-02-02T09:26:24;101181.16;;;7.95;100.00
11525;BME280;5819;49.648;8.330;2023-02-02T09:28:54;101179.50;;;7.91;100.00
11525;BME280;5819;49.648;8.330;2023-02-02T09:31:24;101182.81;;;8.01;100.00
11525;BME280;5819;49.648;8.330;2023-02-02T09:33:53;101180.44;;;7.89;100.00
11525;BME280;5819;49.648;8.330;2023-02-02T09:36:23;101180.44;;;7.89;100.00
11525;BME280;5819;49.648;8.330;2023-02-02T09:38:52;101180.22;;;8.01;100.00
11525;BME280;5819;49.648;8.330;2023-02-02T09:44:54;101179.28;;;8.05;100.00
11525;BME280;5819;49.648;8.330;2023-02-02T09:47:34;101188.88;;;7.98;100.00
11525;BME280;5819;49.648;8.330;2023-02-02T09:50:14;101189.41;;;8.16;100.00
11525;BME280;5819;49.648;8.330;2023-02-02T09:52:48;101187.72;;;8.15;100.00
11525;BME280;5819;49.648;8.330;2023-02-02T09:55:26;101186.19;;;8.03;100.00
11525;BME280;5819;49.648;8.330;2023-02-02T09:58:00;101194.84;;;8.04;100.00
11525;BME280;5819;49.648;8.330;2023-02-02T10:00:34;101193.81;;;8.11;100.00
11525;BME280;5819;49.648;8.330;2023-02-02T10:03:11;101186.34;;;7.97;100.00
11525;BME280;5819;49.648;8.330;2023-02-02T10:05:46;101188.84;;;8.00;100.00
11525;BME280;5819;49.648;8.330;2023-02-02T10:08:22;101201.78;;;8.02;100.00
11525;BME280;5819;49.648;8.330;2023-02-02T10:11:07;101206.22;;;7.95;100.00
11525;BME280;5819;49.648;8.330;2023-02-02T10:13:42;101210.09;;;8.19;100.00
11525;BME280;5819;49.648;8.330;2023-02-02T10:16:13;101211.16;;;8.07;100.00
11525;BME280;5819;49.648;8.330;2023-02-02T10:18:47;101220.75;;;8.04;100.00
11525;BME280;5819;49.648;8.330;2023-02-02T10:21:25;101224.09;;;8.10;100.00
11525;BME280;5819;49.648;8.330;2023-02-02T10:23:55;101231.09;;;8.04;100.00
11525;BME280;5819;49.648;8.330;2023-02-02T10:26:42;101224.13;;;8.09;100.00
11525;BME280;5819;49.648;8.330;2023-02-02T10:29:16;101229.16;;;8.16;100.00
11525;BME280;5819;49.648;8.330;2023-02-02T10:31:52;101234.41;;;8.13;100.00
11525;BME280;5819;49.648;8.330;2023-02-02T10:34:27;101235.97;;;8.22;100.00
11525;BME280;5819;49.648;8.330;2023-02-02T10:37:14;101231.22;;;8.45;100.00
11525;BME280;5819;49.648;8.330;2023-02-02T10:42:40;101226.69;;;8.55;97.55
11525;BME280;5819;49.648;8.330;2023-02-02T10:45:14;101216.47;;;8.49;97.67
11525;BME280;5819;49.648;8.330;2023-02-02T10:47:44;101217.78;;;8.68;96.08
11525;BME280;5819;49.648;8.330;2023-02-02T10:50:17;101218.03;;;8.56;96.11
11525;BME280;5819;49.648;8.330;2023-02-02T10:52:48;101206.69;;;8.61;97.13
11525;BME280;5819;49.648;8.330;2023-02-02T10:55:27;101220.78;;;8.50;97.45
11525;BME280;5819;49.648;8.330;2023-02-02T10:58:07;101213.69;;;8.58;97.23
11525;BME280;5819;49.648;8.330;2023-02-02T11:00:46;101206.97;;;8.89;96.04
11525;BME280;5819;49.648;8.330;2023-02-02T11:03:18;101207.81;;;8.89;95.14
11525;BME280;5819;49.648;8.330;2023-02-02T11:05:47;101205.75;;;9.05;95.16
11525;BME280;5819;49.648;8.330;2023-02-02T11:08:34;101197.91;;;9.07;93.33
11525;BME280;5819;49.648;8.330;2023-02-02T11:11:11;101201.34;;;9.09;93.53
11525;BME280;5819;49.648;8.330;2023-02-02T11:13:42;101184.78;;;9.14;93.14
11525;BME280;5819;49.648;8.330;2023-02-02T11:16:23;101194.22;;;9.17;93.08
11525;BME280;5819;49.648;8.330;2023-02-02T11:19:21;101184.91;;;9.44;92.04
11525;BME280;5819;49.648;8.330;2023-02-02T11:21:52;101184.69;;;9.54;91.67
11525;BME280;5819;49.648;8.330;2023-02-02T11:24:25;101191.31;;;9.30;92.02
11525;BME280;5819;49.648;8.330;2023-02-02T11:26:58;101184.72;;;9.51;90.94
11525;BME280;5819;49.648;8.330;2023-02-02T11:29:30;101185.59;;;9.52;91.09
11525;BME280;5819;49.648;8.330;2023-02-02T11:32:17;101187.97;;;9.61;90.62
11525;BME280;5819;49.648;8.330;2023-02-02T11:34:45;101185.75;;;9.79;90.19
11525;BME280;5819;49.648;8.330;2023-02-02T11:37:14;101197.72;;;9.51;90.28
11525;BME280;5819;49.648;8.330;2023-02-02T11:39:42;101185.66;;;9.49;90.13
11525;BME280;5819;49.648;8.330;2023-02-02T11:42:15;101196.06;;;9.49;89.91
11525;BME280;5819;49.648;8.330;2023-02-02T11:44:46;101187.38;;;9.50;90.90
11525;BME280;5819;49.648;8.330;2023-02-02T11:47:19;101181.34;;;9.49;90.02
11525;BME280;5819;49.648;8.330;2023-02-02T11:49:47;101185.47;;;9.56;88.71
11525;BME280;5819;49.648;8.330;2023-02-02T11:52:20;101181.72;;;9.68;88.47
11525;BME280;5819;49.648;8.330;2023-02-02T11:54:49;101180.59;;;9.78;89.00
11525;BME280;5819;49.648;8.330;2023-02-02T11:57:20;101175.97;;;9.89;88.54
11525;BME280;5819;49.648;8.330;2023-02-02T11:59:50;101171.88;;;9.80;88.78
11525;BME280;5819;49.648;8.330;2023-02-02T12:02:28;101167.75;;;10.04;88.79
11525;BME280;5819;49.648;8.330;2023-02-02T12:05:13;101175.16;;;10.19;87.06
11525;BME280;5819;49.648;8.330;2023-02-02T12:07:42;101166.03;;;10.36;86.44
11525;BME280;5819;49.648;8.330;2023-02-02T12:10:15;101157.47;;;10.63;85.63
11525;BME280;5819;49.648;8.330;2023-02-02T12:12:53;101165.22;;;10.92;85.66
11525;BME280;5819;49.648;8.330;2023-02-02T12:15:31;101156.75;;;10.86;84.45
11525;BME280;5819;49.648;8.330;2023-02-02T12:18:13;101163.91;;;10.79;84.13
11525;BME280;5819;49.648;8.330;2023-02-02T12:20:49;101170.78;;;10.52;84.77
11525;BME280;5819;49.648;8.330;2023-02-02T12:23:34;101165.28;;;10.32;86.05
11525;BME280;5819;49.648;8.330;2023-02-02T12:26:16;101171.84;;;10.14;87.29
11525;BME280;5819;49.648;8.330;2023-02-02T12:29:02;101177.03;;;10.14;86.39
11525;BME280;5819;49.648;8.330;2023-02-02T12:31:43;101184.06;;;10.11;85.45
11525;BME280;5819;49.648;8.330;2023-02-02T12:34:21;101175.56;;;10.04;85.74
11525;BME280;5819;49.648;8.330;2023-02-02T12:36:57;101155.47;;;10.11;86.24
11525;BME280;5819;49.648;8.330;2023-02-02T12:39:34;101155.94;;;10.26;85.13
11525;BME280;5819;49.648;8.330;2023-02-02T12:42:19;101156.91;;;10.52;85.45
11525;BME280;5819;49.648;8.330;2023-02-02T12:45:05;101151.03;;;10.74;83.04
11525;BME280;5819;49.648;8.330;2023-02-02T12:47:45;101143.63;;;10.90;82.65
11525;BME280;5819;49.648;8.330;2023-02-02T12:50:23;101140.94;;;10.92;83.32
11525;BME280;5819;49.648;8.330;2023-02-02T12:53:04;101139.50;;;10.83;82.46
11525;BME280;5819;49.648;8.330;2023-02-02T12:55:41;101143.28;;;11.01;82.77
11525;BME280;5819;49.648;8.330;2023-02-02T12:58:19;101153.88;;;10.95;80.89
11525;BME280;5819;49.648;8.330;2023-02-02T13:01:21;101155.94;;;10.84;82.96
11525;BME280;5819;49.648;8.330;2023-02-02T13:04:03;101152.59;;;10.80;82.93
11525;BME280;5819;49.648;8.330;2023-02-02T13:06:52;101164.00;;;10.76;83.28
11525;BME280;5819;49.648;8.330;2023-02-02T13:09:30;101157.84;;;10.78;84.66
11525;BME280;5819;49.648;8.330;2023-02-02T13:12:04;101160.16;;;10.88;83.80
11525;BME280;5819;49.648;8.330;2023-02-02T13:14:35;101165.34;;;11.15;82.21
11525;BME280;5819;49.648;8.330;2023-02-02T13:17:12;101161.69;;;10.95;82.65
11525;BME280;5819;49.648;8.330;2023-02-02T13:19:44;101170.91;;;11.05;82.61
11525;BME280;5819;49.648;8.330;2023-02-02T13:22:28;101177.09;;;11.01;82.60
11525;BME280;5819;49.648;8.330;2023-02-02T13:25:00;101172.78;;;11.00;83.02
11525;BME280;5819;49.648;8.330;2023-02-02T13:27:29;101174.00;;;11.17;82.63
11525;BME280;5819;49.648;8.330;2023-02-02T13:30:02;101182.66;;;11.18;81.36
11525;BME280;5819;49.648;8.330;2023-02-02T13:32:35;101179.75;;;11.27;82.12
11525;BME280;5819;49.648;8.330;2023-02-02T13:35:12;101173.09;;;11.45;81.07
11525;BME280;5819;49.648;8.330;2023-02-02T13:37:48;101179.94;;;11.21;81.81